createdAt,value
2018-11-07T00:01:47.176Z,21.27
2018-11-07T00:04:15.477Z,24.47
2018-11-07T00:06:43.753Z,26.43
2018-11-07T00:09:12.039Z,25.87
2018-11-07T00:11:40.302Z,23.93
2018-11-07T00:14:09.151Z,20.97
2018-11-07T00:16:37.465Z,20.23
2018-11-07T00:19:05.849Z,26.40
2018-11-07T00:21:34.172Z,33.70
2018-11-07T00:24:02.508Z,40.47
2018-11-07T00:26:30.894Z,30.83
2018-11-07T00:28:59.212Z,31.47
2018-11-07T00:31:27.541Z,25.13
2018-11-07T00:33:55.901Z,27.73
2018-11-07T00:36:24.247Z,25.60
2018-11-07T00:38:52.607Z,27.27
2018-11-07T00:41:20.933Z,29.37
2018-11-07T00:43:49.268Z,31.30
2018-11-07T00:46:17.585Z,33.00
2018-11-07T00:48:45.901Z,32.33
2018-11-07T00:51:14.253Z,26.57
2018-11-07T00:53:42.576Z,35.07
2018-11-07T00:56:10.960Z,31.27
2018-11-07T00:58:39.310Z,31.67
2018-11-07T01:01:07.669Z,35.10
2018-11-07T01:03:36.002Z,30.53
2018-11-07T01:06:04.437Z,23.60
2018-11-07T01:08:32.753Z,30.47
2018-11-07T01:11:01.099Z,30.73
2018-11-07T01:13:29.464Z,40.67
2018-11-07T01:15:57.804Z,32.67
2018-11-07T01:18:26.117Z,38.90
2018-11-07T01:20:54.445Z,34.13
2018-11-07T01:23:22.761Z,39.70
2018-11-07T01:25:51.115Z,34.43
2018-11-07T01:28:19.521Z,29.43
2018-11-07T01:30:47.854Z,31.07
2018-11-07T01:33:16.174Z,23.30
2018-11-07T01:35:44.535Z,22.13
2018-11-07T01:38:12.862Z,26.07
2018-11-07T01:40:41.242Z,31.90
2018-11-07T01:43:09.573Z,38.13
2018-11-07T01:45:37.911Z,36.67
2018-11-07T01:48:06.276Z,48.77
2018-11-07T01:50:34.688Z,45.30
2018-11-07T01:53:03.017Z,37.07
2018-11-07T01:55:31.412Z,32.73
2018-11-07T02:04:54.278Z,33.53
2018-11-07T02:07:22.567Z,30.40
2018-11-07T02:09:50.831Z,28.13
2018-11-07T02:12:19.161Z,44.53
2018-11-07T02:14:47.476Z,27.37
2018-11-07T02:17:15.784Z,24.20
2018-11-07T02:19:44.072Z,23.27
2018-11-07T02:22:12.337Z,24.43
2018-11-07T02:24:40.690Z,23.80
2018-11-07T02:27:08.951Z,21.87
2018-11-07T02:29:37.283Z,26.90
2018-11-07T02:32:05.611Z,21.77
2018-11-07T02:34:34.001Z,21.43
2018-11-07T02:37:02.374Z,21.30
2018-11-07T02:39:30.661Z,16.37
2018-11-07T02:41:59.053Z,18.53
2018-11-07T02:44:27.286Z,18.40
2018-11-07T02:46:55.680Z,16.17
2018-11-07T02:49:23.989Z,16.33
2018-11-07T02:51:52.306Z,14.50
2018-11-07T02:54:20.623Z,16.67
2018-11-07T02:56:48.951Z,17.40
2018-11-07T02:59:17.286Z,15.97
2018-11-07T03:01:45.588Z,17.17
2018-11-07T03:04:15.750Z,15.50
2018-11-07T03:06:45.307Z,15.90
2018-11-07T03:09:14.926Z,17.07
2018-11-07T03:11:43.232Z,15.57
2018-11-07T03:14:11.576Z,16.93
2018-11-07T03:16:39.854Z,16.70
2018-11-07T03:19:08.228Z,16.80
2018-11-07T03:21:36.660Z,13.43
2018-11-07T03:24:05.062Z,15.40
2018-11-07T03:26:33.348Z,16.37
2018-11-07T03:29:01.857Z,16.53
2018-11-07T03:31:30.324Z,21.93
2018-11-07T03:33:58.839Z,15.37
2018-11-07T03:36:27.196Z,12.13
2018-11-07T03:38:55.518Z,15.50
2018-11-07T03:41:23.850Z,13.93
2018-11-07T03:43:52.192Z,15.20
2018-11-07T03:46:20.748Z,15.63
2018-11-07T03:48:49.336Z,16.53
2018-11-07T03:51:18.006Z,15.43
2018-11-07T03:53:46.345Z,17.77
2018-11-07T03:56:14.670Z,15.70
2018-11-07T03:58:42.979Z,16.63
2018-11-07T04:01:11.296Z,18.97
2018-11-07T04:03:39.667Z,16.47
2018-11-07T04:06:08.137Z,18.80
2018-11-07T04:08:36.410Z,17.23
2018-11-07T04:11:05.152Z,16.77
2018-11-07T04:13:33.499Z,15.97
2018-11-07T04:16:01.885Z,17.53
2018-11-07T04:18:30.168Z,17.13
2018-11-07T04:20:58.496Z,17.73
2018-11-07T04:23:26.775Z,15.10
2018-11-07T04:25:55.090Z,17.33
2018-11-07T04:28:23.385Z,17.53
2018-11-07T04:30:51.690Z,16.33
2018-11-07T04:33:19.976Z,17.37
2018-11-07T04:35:48.513Z,16.07
2018-11-07T04:38:16.826Z,19.60
2018-11-07T04:40:45.167Z,21.37
2018-11-07T04:43:13.499Z,20.90
2018-11-07T04:45:41.830Z,19.03
2018-11-07T04:48:10.140Z,17.03
2018-11-07T04:50:45.489Z,20.37
2018-11-07T04:53:15.000Z,18.93
2018-11-07T04:55:43.338Z,18.03
2018-11-07T04:58:11.633Z,18.83
2018-11-07T05:00:39.967Z,18.60
2018-11-07T05:03:08.254Z,19.43
2018-11-07T05:05:36.576Z,17.90
2018-11-07T05:08:04.934Z,18.63
2018-11-07T05:10:33.252Z,19.17
2018-11-07T05:13:01.560Z,17.43
2018-11-07T05:15:29.897Z,19.27
2018-11-07T05:17:58.253Z,18.33
2018-11-07T05:20:26.789Z,17.07
2018-11-07T05:22:55.091Z,17.33
2018-11-07T05:25:23.388Z,18.93
2018-11-07T05:27:51.658Z,17.63
2018-11-07T05:30:19.955Z,18.43
2018-11-07T05:32:48.247Z,17.50
2018-11-07T05:35:16.620Z,17.83
2018-11-07T05:37:44.921Z,16.53
2018-11-07T05:40:14.411Z,21.63
2018-11-07T05:42:42.763Z,20.60
2018-11-07T05:45:11.508Z,22.17
2018-11-07T05:47:39.991Z,22.67
2018-11-07T05:50:09.102Z,23.63
2018-11-07T05:52:37.875Z,22.27
2018-11-07T05:55:06.768Z,20.00
2018-11-07T05:57:35.867Z,19.47
2018-11-07T06:00:04.754Z,17.03
2018-11-07T06:02:33.100Z,20.33
2018-11-07T06:05:01.405Z,18.73
2018-11-07T06:07:34.688Z,19.67
2018-11-07T06:10:03.090Z,20.47
2018-11-07T06:12:31.466Z,22.67
2018-11-07T06:14:59.767Z,22.00
2018-11-07T06:17:28.180Z,29.63
2018-11-07T06:19:56.508Z,31.30
2018-11-07T06:22:24.869Z,28.93
2018-11-07T06:24:53.232Z,26.30
2018-11-07T06:27:21.747Z,16.80
2018-11-07T06:29:50.809Z,24.63
2018-11-07T06:32:19.170Z,27.93
2018-11-07T06:34:47.476Z,27.23
2018-11-07T06:37:15.891Z,65.63
2018-11-07T06:39:44.473Z,55.63
2018-11-07T06:42:12.827Z,47.17
2018-11-07T06:44:41.301Z,29.77
2018-11-07T06:47:10.122Z,40.23
2018-11-07T06:49:39.338Z,36.33
2018-11-07T06:52:07.666Z,41.63
2018-11-07T06:54:36.825Z,44.80
2018-11-07T06:57:05.707Z,49.40
2018-11-07T06:59:34.005Z,36.47
2018-11-07T07:02:02.447Z,37.93
2018-11-07T07:04:30.734Z,40.07
2018-11-07T07:06:59.489Z,46.67
2018-11-07T07:09:27.826Z,45.97
2018-11-07T07:11:56.302Z,33.67
2018-11-07T07:14:24.669Z,27.07
2018-11-07T07:16:53.241Z,24.37
2018-11-07T07:19:21.595Z,22.50
2018-11-07T07:21:51.208Z,24.20
2018-11-07T07:24:20.583Z,26.77
2018-11-07T07:26:49.971Z,27.80
2018-11-07T07:29:19.551Z,33.13
2018-11-07T07:31:49.694Z,54.40
2018-11-07T07:34:20.095Z,45.93
2018-11-07T07:36:48.844Z,47.27
2018-11-07T07:39:17.192Z,49.57
2018-11-07T07:41:46.357Z,50.10
2018-11-07T07:44:14.691Z,40.77
2018-11-07T07:46:42.968Z,39.90
2018-11-07T07:49:11.609Z,37.03
2018-11-07T07:51:40.161Z,28.90
2018-11-07T07:54:08.543Z,28.77
2018-11-07T07:56:36.965Z,31.50
2018-11-07T07:59:06.037Z,33.27
2018-11-07T08:01:34.339Z,28.03
2018-11-07T08:04:02.865Z,29.60
2018-11-07T08:06:34.212Z,31.77
2018-11-07T08:09:02.498Z,31.10
2018-11-07T08:11:30.850Z,31.73
2018-11-07T08:13:59.292Z,29.33
2018-11-07T08:16:27.688Z,29.53
2018-11-07T08:18:55.970Z,34.77
2018-11-07T08:21:24.426Z,33.60
2018-11-07T08:23:52.674Z,30.33
2018-11-07T08:26:21.122Z,31.67
2018-11-07T08:28:49.541Z,29.77
2018-11-07T08:31:18.788Z,29.23
2018-11-07T08:33:47.044Z,27.10
2018-11-07T08:36:15.425Z,26.40
2018-11-07T08:38:43.665Z,26.13
2018-11-07T08:41:11.973Z,23.57
2018-11-07T08:43:40.337Z,28.43
2018-11-07T08:46:08.600Z,30.33
2018-11-07T08:48:38.899Z,34.67
2018-11-07T08:51:07.169Z,35.37
2018-11-07T08:53:36.513Z,38.33
2018-11-07T08:56:05.151Z,39.90
2018-11-07T08:58:33.426Z,39.13
2018-11-07T09:01:01.769Z,39.03
2018-11-07T09:03:30.068Z,38.70
2018-11-07T09:05:58.410Z,36.90
2018-11-07T09:08:26.709Z,41.17
2018-11-07T09:10:55.047Z,38.70
2018-11-07T09:13:23.487Z,37.47
2018-11-07T09:15:51.721Z,36.93
2018-11-07T09:18:20.057Z,41.40
2018-11-07T09:20:48.288Z,40.87
2018-11-07T09:23:16.612Z,46.03
2018-11-07T09:25:45.190Z,39.63
2018-11-07T09:28:13.691Z,38.83
2018-11-07T09:30:42.001Z,38.37
2018-11-07T09:33:10.314Z,39.03
2018-11-07T09:35:38.610Z,33.67
2018-11-07T09:38:07.001Z,37.63
2018-11-07T09:40:35.224Z,35.33
2018-11-07T09:43:03.642Z,31.73
2018-11-07T09:45:31.873Z,29.27
2018-11-07T09:48:00.242Z,29.03
2018-11-07T09:50:28.590Z,26.80
2018-11-07T09:52:56.949Z,25.17
2018-11-07T09:55:25.177Z,23.17
2018-11-07T09:57:53.516Z,21.77
2018-11-07T10:00:22.565Z,22.67
2018-11-07T10:02:50.854Z,21.80
2018-11-07T10:05:20.601Z,23.07
2018-11-07T10:07:49.165Z,21.30
2018-11-07T10:10:18.991Z,17.83
2018-11-07T10:12:47.386Z,18.77
2018-11-07T10:15:15.747Z,19.10
2018-11-07T10:17:44.177Z,15.37
2018-11-07T10:20:15.353Z,14.47
2018-11-07T10:22:44.478Z,15.13
2018-11-07T10:25:13.254Z,12.27
2018-11-07T10:27:42.003Z,11.27
2018-11-07T10:30:12.465Z,11.10
2018-11-07T10:32:41.077Z,12.10
2018-11-07T10:35:09.901Z,12.03
2018-11-07T10:37:38.287Z,11.20
2018-11-07T10:40:08.881Z,11.57
2018-11-07T10:42:37.827Z,10.40
2018-11-07T10:45:06.834Z,9.20
2018-11-07T10:47:35.161Z,12.53
2018-11-07T10:50:06.365Z,8.63
2018-11-07T10:52:34.728Z,7.70
2018-11-07T10:55:02.941Z,6.67
2018-11-07T10:57:31.180Z,9.03
2018-11-07T10:59:59.521Z,8.87
2018-11-07T11:02:33.041Z,7.97
2018-11-07T11:05:01.558Z,6.43
2018-11-07T11:07:30.019Z,5.30
2018-11-07T11:09:58.334Z,4.50
2018-11-07T11:12:26.757Z,5.97
2018-11-07T11:14:55.097Z,4.10
2018-11-07T11:17:23.481Z,4.20
2018-11-07T11:19:51.703Z,3.67
2018-11-07T11:22:20.036Z,4.10
2018-11-07T11:24:48.296Z,4.10
2018-11-07T11:27:16.562Z,3.30
2018-11-07T11:29:44.946Z,3.73
2018-11-07T11:32:14.429Z,3.90
2018-11-07T11:34:43.066Z,5.47
2018-11-07T11:37:11.340Z,3.77
2018-11-07T11:39:39.827Z,3.63
2018-11-07T11:42:08.111Z,4.27
2018-11-07T11:44:36.389Z,4.13
2018-11-07T11:47:04.631Z,5.03
2018-11-07T11:49:34.103Z,4.20
2018-11-07T11:52:02.375Z,6.07
2018-11-07T11:54:31.669Z,3.60
2018-11-07T11:57:00.065Z,3.37
2018-11-07T11:59:28.545Z,4.53
2018-11-07T12:01:56.718Z,4.80
2018-11-07T12:04:25.837Z,4.27
2018-11-07T12:06:54.313Z,4.03
2018-11-07T12:09:23.661Z,4.57
2018-11-07T12:11:51.961Z,3.70
2018-11-07T12:14:20.212Z,4.30
2018-11-07T12:16:48.472Z,3.87
2018-11-07T12:19:16.729Z,3.90
2018-11-07T12:21:45.023Z,4.27
2018-11-07T12:24:13.283Z,3.70
2018-11-07T12:26:41.578Z,3.73
2018-11-07T12:29:09.954Z,4.20
2018-11-07T12:31:38.202Z,5.33
2018-11-07T12:34:06.469Z,3.83
2018-11-07T12:36:34.823Z,5.93
2018-11-07T12:39:09.962Z,5.50
2018-11-07T12:41:39.953Z,3.77
2018-11-07T12:44:08.681Z,3.63
2018-11-07T12:46:38.120Z,3.70
2018-11-07T12:49:06.458Z,4.20
2018-11-07T12:51:34.866Z,3.77
2018-11-07T12:54:03.827Z,3.47
2018-11-07T12:56:33.016Z,3.07
2018-11-07T12:59:01.455Z,4.10
2018-11-07T13:01:31.794Z,4.30
2018-11-07T13:04:00.178Z,4.83
2018-11-07T13:06:29.344Z,3.63
2018-11-07T13:09:00.226Z,4.63
2018-11-07T13:11:30.026Z,3.47
2018-11-07T13:13:59.501Z,3.33
2018-11-07T13:16:29.091Z,3.17
2018-11-07T13:18:59.692Z,4.40
2018-11-07T13:21:28.082Z,4.23
2018-11-07T13:23:56.440Z,4.47
2018-11-07T13:26:25.438Z,4.40
2018-11-07T13:28:53.921Z,3.43
2018-11-07T13:31:23.395Z,4.27
2018-11-07T13:33:51.662Z,4.00
2018-11-07T13:36:20.213Z,3.67
2018-11-07T13:38:48.852Z,4.70
2018-11-07T13:41:17.665Z,3.97
2018-11-07T13:46:40.903Z,3.50
2018-11-07T13:49:09.361Z,3.30
2018-11-07T13:51:37.985Z,3.83
2018-11-07T13:54:06.357Z,3.67
2018-11-07T13:56:34.970Z,3.33
2018-11-07T13:59:03.289Z,3.73
2018-11-07T14:01:31.686Z,3.30
2018-11-07T14:04:02.189Z,3.87
2018-11-07T14:06:30.847Z,3.20
2018-11-07T14:09:01.027Z,3.53
2018-11-07T14:11:30.466Z,5.63
2018-11-07T14:13:58.863Z,3.33
2018-11-07T14:16:27.947Z,3.40
2018-11-07T14:18:56.387Z,6.77
2018-11-07T14:21:24.732Z,3.43
2018-11-07T14:23:53.045Z,3.90
2018-11-07T14:29:04.920Z,3.10
2018-11-07T14:31:33.261Z,3.80
2018-11-07T14:34:01.571Z,4.07
2018-11-07T14:36:29.999Z,3.63
2018-11-07T14:38:58.340Z,4.93
2018-11-07T14:41:26.642Z,6.33
2018-11-07T14:43:56.039Z,5.63
2018-11-07T14:46:24.375Z,5.67
2018-11-07T14:48:53.950Z,5.20
2018-11-07T14:51:22.471Z,5.53
2018-11-07T14:53:50.811Z,3.97
2018-11-07T14:56:19.210Z,6.20
2018-11-07T14:58:47.537Z,5.97
2018-11-07T15:10:07.523Z,3.93
2018-11-07T15:12:35.966Z,3.73
2018-11-07T15:15:04.791Z,3.63
2018-11-07T15:17:33.420Z,5.00
2018-11-07T15:20:02.055Z,5.73
2018-11-07T15:22:30.741Z,5.57
2018-11-07T15:24:59.301Z,7.10
2018-11-07T15:27:28.013Z,6.60
2018-11-07T15:29:56.587Z,6.70
2018-11-07T15:32:25.061Z,6.23
2018-11-07T15:34:53.563Z,7.17
2018-11-07T15:37:21.886Z,5.40
2018-11-07T15:39:50.323Z,5.17
2018-11-07T15:42:18.921Z,5.23
2018-11-07T15:44:47.239Z,4.23
2018-11-07T15:47:15.538Z,6.87
2018-11-07T15:49:47.983Z,4.73
2018-11-07T15:52:16.301Z,6.83
2018-11-07T15:54:44.628Z,5.93
2018-11-07T15:57:12.904Z,8.43
2018-11-07T15:59:41.237Z,6.40
2018-11-07T16:02:09.561Z,5.27
2018-11-07T16:04:37.906Z,6.53
2018-11-07T16:07:06.194Z,6.53
2018-11-07T16:09:34.490Z,5.23
2018-11-07T16:12:02.835Z,6.47
2018-11-07T16:14:31.328Z,7.80
2018-11-07T16:16:59.785Z,7.20
2018-11-07T16:19:28.115Z,8.20
2018-11-07T16:21:56.520Z,7.27
2018-11-07T16:24:25.192Z,6.60
2018-11-07T16:26:53.688Z,5.60
2018-11-07T16:29:21.993Z,5.50
2018-11-07T16:31:50.379Z,5.63
2018-11-07T16:34:18.638Z,6.77
2018-11-07T16:36:46.985Z,7.03
2018-11-07T16:39:15.323Z,7.37
2018-11-07T16:41:43.872Z,6.37
2018-11-07T16:44:12.052Z,5.87
2018-11-07T16:46:40.360Z,6.10
2018-11-07T16:49:08.695Z,6.97
2018-11-07T16:51:37.122Z,6.30
2018-11-07T16:54:07.371Z,7.13
2018-11-07T16:56:35.774Z,6.83
2018-11-07T16:59:04.158Z,6.60
2018-11-07T17:01:32.937Z,5.30
2018-11-07T17:04:01.466Z,6.30
2018-11-07T17:06:30.112Z,5.63
2018-11-07T17:08:58.420Z,7.17
2018-11-07T17:11:26.723Z,5.97
2018-11-07T17:13:55.057Z,5.10
2018-11-07T17:16:23.432Z,4.87
2018-11-07T17:18:51.895Z,5.80
2018-11-07T17:21:20.210Z,5.27
2018-11-07T17:23:48.606Z,6.40
2018-11-07T17:26:16.897Z,5.17
2018-11-07T17:28:45.307Z,6.60
2018-11-07T17:31:13.882Z,7.43
2018-11-07T17:33:42.218Z,7.47
2018-11-07T17:36:10.504Z,6.10
2018-11-07T17:38:38.871Z,5.80
2018-11-07T17:41:07.186Z,4.87
2018-11-07T17:43:35.470Z,6.87
2018-11-07T17:46:03.950Z,5.13
2018-11-07T17:48:32.384Z,6.07
2018-11-07T17:51:00.611Z,4.87
2018-11-07T17:53:28.963Z,6.13
2018-11-07T17:55:57.263Z,5.33
2018-11-07T17:58:25.620Z,8.03
2018-11-07T18:00:53.950Z,6.73
2018-11-07T18:03:22.382Z,6.47
2018-11-07T18:05:50.705Z,6.97
2018-11-07T18:08:19.029Z,7.37
2018-11-07T18:10:47.515Z,8.10
2018-11-07T18:13:15.986Z,7.53
2018-11-07T18:15:44.338Z,7.57
2018-11-07T18:18:12.665Z,12.67
2018-11-07T18:20:41.491Z,10.00
2018-11-07T18:23:09.814Z,7.27
2018-11-07T18:25:38.113Z,8.10
2018-11-07T18:28:06.545Z,7.03
2018-11-07T18:30:35.339Z,8.57
2018-11-07T18:33:03.615Z,9.00
2018-11-07T18:35:32.257Z,9.27
2018-11-07T18:38:02.051Z,9.17
2018-11-07T18:40:30.601Z,8.45
2018-11-07T18:42:59.264Z,8.57
2018-11-07T18:45:30.409Z,10.43
2018-11-07T18:47:59.760Z,6.53
2018-11-07T18:50:28.201Z,7.40
2018-11-07T18:52:56.659Z,8.57
2018-11-07T18:55:24.944Z,7.30
2018-11-07T18:57:53.391Z,8.70
2018-11-07T19:00:21.728Z,7.13
2018-11-07T19:02:51.251Z,6.07
2018-11-07T19:05:19.905Z,7.47
2018-11-07T19:07:48.573Z,8.30
2018-11-07T19:10:18.665Z,8.83
2018-11-07T19:12:47.722Z,6.63
2018-11-07T19:15:16.645Z,4.07
2018-11-07T19:17:46.479Z,4.90
2018-11-07T19:20:16.206Z,5.60
2018-11-07T19:22:45.070Z,5.93
2018-11-07T19:25:17.446Z,5.93
2018-11-07T19:27:47.563Z,5.70
2018-11-07T19:30:18.402Z,8.90
2018-11-07T19:32:49.160Z,6.73
2018-11-07T19:35:51.006Z,7.97
2018-11-07T19:38:19.759Z,6.87
2018-11-07T19:40:48.103Z,8.70
2018-11-07T19:43:16.444Z,9.23
2018-11-07T19:45:45.454Z,24.00
2018-11-07T19:48:13.779Z,19.60
2018-11-07T19:50:42.058Z,18.03
2018-11-07T19:53:11.371Z,11.33
2018-11-07T19:55:39.657Z,9.80
2018-11-07T19:58:09.224Z,10.20
2018-11-07T20:03:52.813Z,11.97
2018-11-07T20:06:21.542Z,13.80
2018-11-07T20:08:49.964Z,23.43
2018-11-07T20:11:18.926Z,29.10
2018-11-07T20:13:47.290Z,26.03
2018-11-07T20:16:15.702Z,27.63
2018-11-07T20:18:44.024Z,23.07
2018-11-07T20:21:14.025Z,21.70
2018-11-07T20:23:43.017Z,21.73
2018-11-07T20:26:11.431Z,22.23
2018-11-07T20:28:39.772Z,18.73
2018-11-07T20:31:08.708Z,18.23
2018-11-07T20:33:37.996Z,18.27
2018-11-07T20:36:07.124Z,19.23
2018-11-07T20:38:36.251Z,16.50
2018-11-07T20:41:04.695Z,16.87
2018-11-07T20:43:34.085Z,16.80
2018-11-07T20:46:02.516Z,14.67
2018-11-07T20:48:32.276Z,13.57
2018-11-07T20:51:00.656Z,15.90
2018-11-07T20:53:29.221Z,17.17
2018-11-07T20:55:57.558Z,12.90
2018-11-07T20:58:26.028Z,17.70
2018-11-07T21:00:54.679Z,15.97
2018-11-07T21:03:23.353Z,13.10
2018-11-07T21:05:51.699Z,17.53
2018-11-07T21:08:20.030Z,14.07
2018-11-07T21:10:49.072Z,14.33
2018-11-07T21:13:17.406Z,14.67
2018-11-07T21:15:46.070Z,17.83
2018-11-07T21:18:14.404Z,14.67
2018-11-07T21:20:42.763Z,14.93
2018-11-07T21:23:11.904Z,14.90
2018-11-07T21:25:41.164Z,14.40
2018-11-07T21:28:09.475Z,14.10
2018-11-07T21:30:37.888Z,14.57
2018-11-07T21:33:07.198Z,19.63
2018-11-07T21:35:35.523Z,15.13
2018-11-07T21:38:03.807Z,14.10
2018-11-07T21:40:32.118Z,14.83
2018-11-07T21:43:00.551Z,11.70
2018-11-07T21:45:28.827Z,12.53
2018-11-07T21:47:57.121Z,11.27
2018-11-07T21:50:25.480Z,12.57
2018-11-07T21:52:53.787Z,12.47
2018-11-07T21:55:22.123Z,11.90
2018-11-07T21:57:50.499Z,11.37
2018-11-07T22:00:19.818Z,13.00
2018-11-07T22:02:48.235Z,12.20
2018-11-07T22:05:17.411Z,12.10
2018-11-07T22:07:45.854Z,10.83
2018-11-07T22:10:15.437Z,10.83
2018-11-07T22:12:43.805Z,10.97
2018-11-07T22:15:12.239Z,11.87
2018-11-07T22:17:40.714Z,10.37
2018-11-07T22:20:12.986Z,10.27
2018-11-07T22:22:41.273Z,9.93
2018-11-07T22:25:09.652Z,10.13
2018-11-07T22:27:37.997Z,12.20
2018-11-07T22:30:08.018Z,11.77
2018-11-07T22:32:36.566Z,16.27
2018-11-07T22:35:05.247Z,12.60
2018-11-07T22:37:33.610Z,12.03
2018-11-07T22:40:01.934Z,12.53
2018-11-07T22:42:30.261Z,12.83
2018-11-07T22:44:58.668Z,13.10
2018-11-07T22:47:26.949Z,14.40
2018-11-07T22:49:55.271Z,12.60
2018-11-07T22:52:23.572Z,12.87
2018-11-07T22:54:51.875Z,12.23
2018-11-07T22:57:20.195Z,14.63
2018-11-07T22:59:48.549Z,13.90
2018-11-07T23:02:18.203Z,14.13
2018-11-07T23:04:46.700Z,15.33
2018-11-07T23:07:15.476Z,14.47
2018-11-07T23:09:43.959Z,14.00
2018-11-07T23:12:12.304Z,14.13
2018-11-07T23:14:40.688Z,15.67
2018-11-07T23:17:08.989Z,14.97
2018-11-07T23:19:37.339Z,14.23
2018-11-07T23:22:05.981Z,16.37
2018-11-07T23:24:34.347Z,14.07
2018-11-07T23:27:02.667Z,14.77
2018-11-07T23:29:30.990Z,15.73
2018-11-07T23:31:59.319Z,19.67
2018-11-07T23:34:27.584Z,18.90
2018-11-07T23:36:55.884Z,17.10
2018-11-07T23:39:24.164Z,15.50
2018-11-07T23:41:52.514Z,18.83
2018-11-07T23:44:20.891Z,17.73
2018-11-07T23:46:49.235Z,19.13
2018-11-07T23:49:17.538Z,19.07
2018-11-07T23:51:49.947Z,18.00
2018-11-07T23:54:19.902Z,16.27
2018-11-07T23:56:48.510Z,15.20
2018-11-07T23:59:16.831Z,15.33
